createdAt,value
2022-07-31T00:00:31.754Z,98694.03
2022-07-31T00:03:08.455Z,98696.88
2022-07-31T00:05:41.423Z,98698.56
2022-07-31T00:08:10.391Z,98702.28
2022-07-31T00:10:38.197Z,98690.38
2022-07-31T00:13:05.342Z,98703.91
2022-07-31T00:15:32.606Z,98708.75
2022-07-31T00:18:00.433Z,98693.53
2022-07-31T00:20:28.386Z,98697.81
2022-07-31T00:22:57.338Z,98690.44
2022-07-31T00:25:24.813Z,98697.59
2022-07-31T00:27:51.913Z,98701.41
2022-07-31T00:30:19.125Z,98686.75
2022-07-31T00:32:46.613Z,98692.41
2022-07-31T00:35:16.202Z,98689.41
2022-07-31T00:37:44.565Z,98693.16
2022-07-31T00:40:15.542Z,98688.81
2022-07-31T00:42:43.367Z,98690.22
2022-07-31T00:45:13.406Z,98692.66
2022-07-31T00:47:42.294Z,98690.94
2022-07-31T00:50:11.364Z,98691.25
2022-07-31T00:52:38.754Z,98690.13
2022-07-31T00:55:07.039Z,98692.03
2022-07-31T00:57:34.418Z,98690.44
2022-07-31T01:00:01.543Z,98694.75
2022-07-31T01:02:29.475Z,98688.56
2022-07-31T01:04:57.006Z,98692.41
2022-07-31T01:07:24.456Z,98693.22
2022-07-31T01:09:53.825Z,98691.59
2022-07-31T01:12:39.923Z,98692.75
2022-07-31T01:15:11.208Z,98700.28
2022-07-31T01:17:41.532Z,98688.16
2022-07-31T01:20:12.794Z,98688.41
2022-07-31T01:23:30.953Z,98690.56
2022-07-31T01:26:55.541Z,98684.59
2022-07-31T01:29:32.494Z,98674.34
2022-07-31T01:32:27.400Z,98677.56
2022-07-31T01:35:09.807Z,98671.06
2022-07-31T01:37:45.450Z,98673.78
2022-07-31T01:40:20.447Z,98673.78
2022-07-31T01:42:56.730Z,98668.94
2022-07-31T01:45:27.595Z,98670.53
2022-07-31T01:47:58.720Z,98662.72
2022-07-31T01:50:42.447Z,98656.47
2022-07-31T01:53:20.087Z,98662.97
2022-07-31T01:56:02.823Z,98660.28
2022-07-31T01:58:39.846Z,98662.47
2022-07-31T02:01:20.675Z,98655.44
2022-07-31T02:03:51.520Z,98653.03
2022-07-31T02:06:26.713Z,98651.72
2022-07-31T02:08:56.922Z,98656.59
2022-07-31T02:11:24.961Z,98641.97
2022-07-31T02:13:53.574Z,98645.78
2022-07-31T02:16:25.816Z,98644.19
2022-07-31T02:19:02.354Z,98648.53
2022-07-31T02:21:30.382Z,98642.56
2022-07-31T02:23:57.678Z,98643.66
2022-07-31T02:26:27.670Z,98640.72
2022-07-31T02:28:57.356Z,98635.00
2022-07-31T02:31:28.592Z,98637.72
2022-07-31T02:33:55.931Z,98639.84
2022-07-31T02:36:25.797Z,98639.09
2022-07-31T02:38:56.729Z,98634.50
2022-07-31T02:41:26.144Z,98632.91
2022-07-31T02:43:54.801Z,98636.13
2022-07-31T02:46:25.298Z,98631.28
2022-07-31T02:48:53.856Z,98628.09
2022-07-31T02:51:24.399Z,98632.97
2022-07-31T02:53:53.646Z,98635.69
2022-07-31T02:56:25.137Z,98628.38
2022-07-31T02:58:52.910Z,98628.66
2022-07-31T03:01:25.206Z,98634.63
2022-07-31T03:03:53.387Z,98630.63
2022-07-31T03:06:20.612Z,98627.63
2022-07-31T03:08:48.594Z,98632.53
2022-07-31T03:11:20.082Z,98629.84
2022-07-31T03:13:48.469Z,98631.94
2022-07-31T03:16:17.136Z,98623.03
2022-07-31T03:18:45.939Z,98620.34
2022-07-31T03:21:14.195Z,98619.53
2022-07-31T03:23:42.593Z,98622.22
2022-07-31T03:26:17.346Z,98611.41
2022-07-31T03:28:45.015Z,98613.59
2022-07-31T03:31:12.749Z,98611.19
2022-07-31T03:33:39.962Z,98613.06
2022-07-31T03:36:09.559Z,98609.59
2022-07-31T03:38:42.161Z,98604.75
2022-07-31T03:41:34.934Z,98607.72
2022-07-31T03:44:02.999Z,98609.34
2022-07-31T03:46:30.928Z,98610.97
2022-07-31T03:48:59.991Z,98616.44
2022-07-31T03:51:28.810Z,98614.00
2022-07-31T03:53:56.510Z,98619.72
2022-07-31T03:56:51.163Z,98624.09
2022-07-31T03:59:21.658Z,98626.25
2022-07-31T04:01:56.853Z,98624.09
2022-07-31T04:04:51.925Z,98629.28
2022-07-31T04:07:20.884Z,98634.16
2022-07-31T04:09:48.290Z,98639.84
2022-07-31T04:12:16.544Z,98639.84
2022-07-31T04:14:44.345Z,98642.03
2022-07-31T04:17:12.376Z,98646.94
2022-07-31T04:19:42.281Z,98646.41
2022-07-31T04:22:09.957Z,98664.41
2022-07-31T04:24:39.726Z,98660.91
2022-07-31T04:27:26.016Z,98667.34
2022-07-31T04:29:53.717Z,98664.94
2022-07-31T04:32:21.684Z,98665.97
2022-07-31T04:34:53.587Z,98666.53
2022-07-31T04:37:22.445Z,98677.94
2022-07-31T04:39:49.959Z,98677.13
2022-07-31T04:42:17.562Z,98682.78
2022-07-31T04:44:45.214Z,98684.72
2022-07-31T04:47:14.222Z,98690.38
2022-07-31T04:49:44.510Z,98696.91
2022-07-31T04:52:15.101Z,98691.50
2022-07-31T04:54:45.456Z,98689.81
2022-07-31T04:57:18.474Z,98691.97
2022-07-31T04:59:59.093Z,98685.97
2022-07-31T05:02:29.143Z,98689.75
2022-07-31T05:04:57.542Z,98700.63
2022-07-31T05:07:31.407Z,98704.47
2022-07-31T05:10:01.655Z,98714.22
2022-07-31T05:12:30.771Z,98710.44
2022-07-31T05:14:58.044Z,98710.16
2022-07-31T05:17:26.290Z,98716.41
2022-07-31T05:20:13.563Z,98722.94
2022-07-31T05:23:06.743Z,98731.66
2022-07-31T05:25:41.873Z,98723.03
2022-07-31T05:28:09.710Z,98731.69
2022-07-31T05:30:37.517Z,98738.72
2022-07-31T05:33:06.879Z,98731.41
2022-07-31T05:35:35.045Z,98732.72
2022-07-31T05:38:02.377Z,98736.53
2022-07-31T05:40:50.435Z,98735.19
2022-07-31T05:43:41.332Z,98735.44
2022-07-31T05:46:24.864Z,98740.28
2022-07-31T05:48:52.257Z,98739.72
2022-07-31T05:51:20.141Z,98739.72
2022-07-31T05:53:49.406Z,98743.50
2022-07-31T05:56:34.865Z,98737.06
2022-07-31T05:59:07.708Z,98741.88
2022-07-31T06:01:35.097Z,98740.28
2022-07-31T06:04:05.545Z,98747.28
2022-07-31T06:06:45.341Z,98754.06
2022-07-31T06:09:12.878Z,98755.66
2022-07-31T06:11:43.733Z,98749.44
2022-07-31T06:14:11.071Z,98758.38
2022-07-31T06:17:08.144Z,98753.25
2022-07-31T06:19:38.587Z,98755.16
2022-07-31T06:22:06.230Z,98751.38
2022-07-31T06:24:34.240Z,98763.22
2022-07-31T06:27:03.511Z,98762.44
2022-07-31T06:29:41.618Z,98761.63
2022-07-31T06:32:10.340Z,98766.81
2022-07-31T06:34:38.074Z,98767.84
2022-07-31T06:37:06.217Z,98764.06
2022-07-31T06:39:55.408Z,98765.66
2022-07-31T06:42:42.445Z,98764.06
2022-07-31T06:45:50.941Z,98764.06
2022-07-31T06:48:49.242Z,98755.44
2022-07-31T06:51:32.564Z,98767.28
2022-07-31T06:54:01.774Z,98773.25
2022-07-31T06:56:31.208Z,98777.06
2022-07-31T06:58:59.079Z,98774.06
2022-07-31T07:01:27.211Z,98779.78
2022-07-31T07:03:55.737Z,98782.03
2022-07-31T07:06:23.593Z,98793.94
2022-07-31T07:08:52.348Z,98796.69
2022-07-31T07:11:21.920Z,98795.06
2022-07-31T07:13:49.552Z,98798.81
2022-07-31T07:16:18.185Z,98801.00
2022-07-31T07:18:46.610Z,98810.72
2022-07-31T07:21:15.087Z,98803.19
2022-07-31T07:23:42.743Z,98808.56
2022-07-31T07:26:31.415Z,98808.56
2022-07-31T07:29:01.629Z,98801.03
2022-07-31T07:31:30.639Z,98802.06
2022-07-31T07:34:09.222Z,98806.44
2022-07-31T07:36:37.531Z,98806.44
2022-07-31T07:40:31.989Z,98812.66
2022-07-31T07:43:03.001Z,98813.47
2022-07-31T07:45:33.026Z,98817.28
2022-07-31T07:48:07.534Z,98818.88
2022-07-31T07:50:55.883Z,98826.44
2022-07-31T07:53:29.728Z,98827.28
2022-07-31T07:56:16.708Z,98825.91
2022-07-31T07:59:07.702Z,98826.94
2022-07-31T08:02:02.487Z,98835.03
2022-07-31T08:04:32.997Z,98829.38
2022-07-31T08:07:00.725Z,98839.38
2022-07-31T08:09:35.848Z,98837.19
2022-07-31T08:12:34.442Z,98836.66
2022-07-31T08:15:22.693Z,98840.44
2022-07-31T08:18:07.485Z,98846.34
2022-07-31T08:20:38.374Z,98849.06
2022-07-31T08:23:31.466Z,98845.81
2022-07-31T08:26:03.730Z,98850.19
2022-07-31T08:28:31.276Z,98854.22
2022-07-31T08:30:59.238Z,98852.84
2022-07-31T08:33:27.085Z,98853.41
2022-07-31T08:35:59.958Z,98859.31
2022-07-31T08:38:28.948Z,98858.78
2022-07-31T08:41:17.585Z,98853.66
2022-07-31T08:44:00.348Z,98854.44
2022-07-31T08:46:37.785Z,98856.06
2022-07-31T08:49:07.938Z,98856.63
2022-07-31T08:51:51.013Z,98868.56
2022-07-31T08:54:46.371Z,98859.66
2022-07-31T08:57:14.767Z,98862.88
2022-07-31T08:59:53.558Z,98874.75
2022-07-31T09:02:21.849Z,98867.97
2022-07-31T09:05:21.827Z,98867.97
2022-07-31T09:07:50.513Z,98864.19
2022-07-31T09:10:28.910Z,98862.03
2022-07-31T09:12:57.682Z,98870.66
2022-07-31T09:15:31.210Z,98877.19
2022-07-31T09:23:26.514Z,98879.84
2022-07-31T09:25:58.143Z,98882.56
2022-07-31T09:28:38.059Z,98882.56
2022-07-31T09:31:09.846Z,98885.81
2022-07-31T09:33:59.611Z,98883.66
2022-07-31T09:37:04.434Z,98888.53
2022-07-31T09:39:57.213Z,98882.03
2022-07-31T09:42:48.564Z,98888.47
2022-07-31T09:50:25.364Z,98892.31
2022-07-31T09:53:02.941Z,98892.00
2022-07-31T09:55:37.381Z,98892.25
2022-07-31T09:58:04.945Z,98891.19
2022-07-31T10:00:38.983Z,98892.81
2022-07-31T10:03:07.867Z,98899.81
2022-07-31T10:05:38.069Z,98892.25
2022-07-31T10:08:06.553Z,98887.94
2022-07-31T10:11:07.285Z,98902.16
2022-07-31T10:23:11.285Z,98908.28
2022-07-31T10:26:02.670Z,98908.81
2022-07-31T10:28:33.523Z,98920.72
2022-07-31T10:31:01.655Z,98912.59
2022-07-31T10:33:45.373Z,98914.69
2022-07-31T10:36:47.186Z,98919.03
2022-07-31T10:40:34.225Z,98916.31
2022-07-31T10:43:36.605Z,98918.16
2022-07-31T10:46:33.307Z,98922.81
2022-07-31T10:49:16.065Z,98923.41
2022-07-31T10:52:10.066Z,98923.13
2022-07-31T10:55:00.108Z,98915.84
2022-07-31T10:58:15.914Z,98930.41
2022-07-31T11:01:09.806Z,98932.31
2022-07-31T11:03:46.384Z,98938.00
2022-07-31T11:06:21.811Z,98937.44
2022-07-31T11:08:54.341Z,98946.63
2022-07-31T11:11:48.064Z,98942.91
2022-07-31T11:14:38.871Z,98954.25
2022-07-31T11:18:21.325Z,98950.47
2022-07-31T11:20:32.750Z,98941.50
2022-07-31T11:23:05.095Z,98939.63
2022-07-31T11:25:36.482Z,98949.34
2022-07-31T11:28:24.863Z,98942.84
2022-07-31T11:31:06.289Z,98937.97
2022-07-31T11:33:43.831Z,98947.16
2022-07-31T11:36:14.972Z,98939.59
2022-07-31T11:38:53.192Z,98939.34
2022-07-31T11:41:29.214Z,98942.34
2022-07-31T11:44:06.838Z,98943.13
2022-07-31T11:46:38.158Z,98947.75
2022-07-31T11:53:50.673Z,98940.97
2022-07-31T11:56:27.647Z,98942.84
2022-07-31T11:58:58.159Z,98947.44
2022-07-31T12:01:29.550Z,98947.69
2022-07-31T12:04:08.575Z,98951.47
2022-07-31T12:06:40.352Z,98950.09
2022-07-31T12:10:02.890Z,98948.19
2022-07-31T12:12:03.265Z,98956.53
2022-07-31T12:14:35.434Z,98960.59
2022-07-31T12:17:23.573Z,98956.81
2022-07-31T12:19:56.099Z,98956.25
2022-07-31T12:22:26.128Z,98962.72
2022-07-31T12:25:03.983Z,98962.16
2022-07-31T12:27:42.110Z,98955.66
2022-07-31T12:30:17.414Z,98962.69
2022-07-31T12:32:48.662Z,98951.91
2022-07-31T12:40:02.335Z,98969.81
2022-07-31T12:42:40.683Z,98967.13
2022-07-31T12:45:36.708Z,98965.50
2022-07-31T12:48:05.848Z,98959.28
2022-07-31T12:50:34.298Z,98961.22
2022-07-31T12:53:04.487Z,98961.25
2022-07-31T12:55:34.527Z,98969.06
2022-07-31T12:58:06.026Z,98958.53
2022-07-31T13:00:39.567Z,98952.84
2022-07-31T13:03:09.670Z,98955.84
2022-07-31T13:05:37.719Z,98959.06
2022-07-31T13:08:08.959Z,98957.44
2022-07-31T13:15:51.715Z,98965.84
2022-07-31T13:18:20.450Z,98965.56
2022-07-31T13:27:52.136Z,98954.53
2022-07-31T13:30:28.095Z,98951.81
2022-07-31T13:32:56.140Z,98955.88
2022-07-31T13:35:27.813Z,98961.31
2022-07-31T13:37:57.247Z,98961.63
2022-07-31T13:40:44.467Z,98967.59
2022-07-31T13:43:13.129Z,98974.09
2022-07-31T13:45:40.684Z,98973.84
2022-07-31T13:48:10.194Z,98970.06
2022-07-31T13:55:20.800Z,98976.53
2022-07-31T14:03:26.695Z,98965.72
2022-07-31T14:10:33.170Z,98969.47
2022-07-31T14:13:04.008Z,98968.41
2022-07-31T14:15:32.622Z,98972.47
2022-07-31T14:18:03.269Z,98975.44
2022-07-31T14:21:16.486Z,98977.06
2022-07-31T14:23:47.614Z,98972.19
2022-07-31T14:31:20.428Z,98985.72
2022-07-31T14:33:48.803Z,98984.13
2022-07-31T14:36:16.305Z,98985.19
2022-07-31T14:38:44.276Z,98981.94
2022-07-31T14:41:12.070Z,98987.34
2022-07-31T14:43:39.281Z,98993.56
2022-07-31T14:46:07.078Z,98992.16
2022-07-31T14:48:34.968Z,99002.44
2022-07-31T14:51:02.107Z,98991.13
2022-07-31T14:53:29.439Z,98998.13
2022-07-31T14:55:56.901Z,98999.19
2022-07-31T14:58:31.244Z,99005.13
2022-07-31T15:01:02.610Z,99013.78
2022-07-31T15:03:31.371Z,98999.19
2022-07-31T15:06:39.983Z,99008.94
2022-07-31T15:20:59.387Z,99018.66
2022-07-31T15:23:36.018Z,99021.09
2022-07-31T15:26:05.345Z,99015.72
2022-07-31T15:28:34.690Z,99022.47
2022-07-31T15:31:02.553Z,99025.97
2022-07-31T15:33:30.221Z,99023.00
2022-07-31T15:35:58.704Z,99023.53
2022-07-31T15:38:27.287Z,99023.53
2022-07-31T15:40:55.205Z,99030.03
2022-07-31T15:43:23.381Z,99027.84
2022-07-31T15:45:51.675Z,99034.84
2022-07-31T15:48:19.312Z,99031.38
2022-07-31T15:50:50.829Z,99035.97
2022-07-31T15:53:29.992Z,99032.44
2022-07-31T15:56:06.046Z,99038.13
2022-07-31T15:58:33.951Z,99030.56
2022-07-31T16:01:07.154Z,99042.44
2022-07-31T16:03:50.715Z,99044.59
2022-07-31T16:08:31.561Z,99043.53
2022-07-31T16:19:12.126Z,99041.91
2022-07-31T16:23:01.914Z,99042.44
2022-07-31T16:25:35.060Z,99046.22
2022-07-31T16:28:24.237Z,99039.75
2022-07-31T16:30:52.129Z,99048.41
2022-07-31T16:33:19.265Z,99038.66
2022-07-31T16:35:47.116Z,99048.13
2022-07-31T16:38:15.305Z,99054.31
2022-07-31T16:49:39.030Z,99055.13
2022-07-31T16:52:08.167Z,99066.19
2022-07-31T16:55:02.474Z,99066.75
2022-07-31T16:57:29.626Z,99064.06
2022-07-31T16:59:58.221Z,99072.69
2022-07-31T17:02:27.249Z,99069.69
2022-07-31T17:04:55.389Z,99072.69
2022-07-31T17:07:22.624Z,99069.44
2022-07-31T17:09:49.842Z,99074.84
2022-07-31T17:12:17.801Z,99071.03
2022-07-31T17:14:44.868Z,99070.50
2022-07-31T17:17:12.474Z,99065.94
2022-07-31T17:20:15.001Z,99068.63
2022-07-31T17:22:42.947Z,99068.34
2022-07-31T17:25:11.733Z,99071.59
2022-07-31T17:27:39.150Z,99063.78
2022-07-31T17:30:10.969Z,99064.03
2022-07-31T17:32:39.692Z,99052.97
2022-07-31T17:39:58.044Z,99054.84
2022-07-31T17:42:27.383Z,99067.28
2022-07-31T17:44:58.957Z,99058.91
2022-07-31T17:47:26.290Z,99054.31
2022-07-31T17:49:53.617Z,99065.66
2022-07-31T17:52:21.265Z,99053.78
2022-07-31T17:54:49.011Z,99062.66
2022-07-31T17:57:16.148Z,99062.41
2022-07-31T17:59:43.934Z,99060.78
2022-07-31T18:02:11.618Z,99051.63
2022-07-31T18:04:41.880Z,99058.63
2022-07-31T18:16:37.032Z,99055.38
2022-07-31T18:19:15.358Z,99060.25
2022-07-31T18:21:44.035Z,99061.84
2022-07-31T18:24:12.146Z,99062.94
2022-07-31T18:27:27.192Z,99065.66
2022-07-31T18:44:52.199Z,99070.22
2022-07-31T18:47:34.198Z,99061.06
2022-07-31T18:59:07.559Z,99074.28
2022-07-31T19:03:56.032Z,99078.88
2022-07-31T19:06:25.427Z,99075.63
2022-07-31T19:08:57.914Z,99089.41
2022-07-31T19:11:35.181Z,99098.56
2022-07-31T19:14:04.393Z,99105.59
2022-07-31T19:18:27.914Z,99098.03
2022-07-31T19:21:41.480Z,99100.75
2022-07-31T19:24:10.882Z,99101.81
2022-07-31T19:26:39.303Z,99106.13
2022-07-31T19:29:15.574Z,99101.81
2022-07-31T19:31:48.551Z,99103.44
2022-07-31T19:34:17.508Z,99103.44
2022-07-31T19:36:46.540Z,99101.28
2022-07-31T19:39:16.926Z,99100.47
2022-07-31T19:41:49.134Z,99103.16
2022-07-31T19:44:34.381Z,99109.09
2022-07-31T19:47:04.937Z,99100.75
2022-07-31T19:49:38.137Z,99098.03
2022-07-31T19:52:08.040Z,99097.22
2022-07-31T19:54:37.430Z,99096.94
2022-07-31T19:57:05.743Z,99095.34
2022-07-31T19:59:34.492Z,99090.75
2022-07-31T20:02:06.241Z,99099.63
2022-07-31T20:04:36.693Z,99096.94
2022-07-31T20:07:05.404Z,99096.94
2022-07-31T20:09:45.328Z,99089.94
2022-07-31T20:12:13.750Z,99086.16
2022-07-31T20:15:52.563Z,99098.03
2022-07-31T20:18:27.990Z,99102.34
2022-07-31T20:20:59.785Z,99097.75
2022-07-31T20:23:28.185Z,99095.34
2022-07-31T20:25:55.485Z,99102.34
2022-07-31T20:28:23.372Z,99102.34
2022-07-31T20:30:50.827Z,99102.34
2022-07-31T20:33:18.454Z,99100.75
2022-07-31T20:35:48.456Z,99104.50
2022-07-31T20:38:19.124Z,99103.69
2022-07-31T20:40:53.775Z,99099.09
2022-07-31T20:43:25.086Z,99103.44
2022-07-31T20:45:56.986Z,99111.53
2022-07-31T20:48:31.235Z,99112.59
2022-07-31T20:51:04.651Z,99104.50
2022-07-31T20:53:32.536Z,99109.09
2022-07-31T20:55:59.866Z,99105.31
2022-07-31T20:58:28.715Z,99104.50
2022-07-31T21:00:56.326Z,99102.91
2022-07-31T21:03:24.076Z,99100.47
2022-07-31T21:05:51.593Z,99099.63
2022-07-31T21:08:19.224Z,99101.28
2022-07-31T21:10:46.432Z,99110.44
2022-07-31T21:13:14.260Z,99102.91
2022-07-31T21:15:47.634Z,99105.84
2022-07-31T21:25:32.290Z,99106.66
2022-07-31T21:28:00.401Z,99105.03
2022-07-31T21:30:29.044Z,99108.84
2022-07-31T21:32:56.554Z,99104.50
2022-07-31T21:35:36.869Z,99112.59
2022-07-31T21:38:10.301Z,99115.31
2022-07-31T21:40:40.559Z,99116.41
2022-07-31T21:43:09.712Z,99115.31
2022-07-31T21:45:50.603Z,99112.59
2022-07-31T21:48:25.851Z,99121.81
2022-07-31T21:50:54.421Z,99123.41
2022-07-31T21:53:23.542Z,99122.59
2022-07-31T21:55:51.631Z,99117.19
2022-07-31T21:58:19.225Z,99116.41
2022-07-31T22:00:46.618Z,99112.88
2022-07-31T22:03:14.244Z,99114.78
2022-07-31T22:06:00.338Z,99113.16
2022-07-31T22:08:28.835Z,99107.78
2022-07-31T22:10:55.838Z,99116.94
2022-07-31T22:13:22.980Z,99121.50
2022-07-31T22:15:58.855Z,99119.09
2022-07-31T22:18:34.210Z,99115.88
2022-07-31T22:21:07.773Z,99123.69
2022-07-31T22:23:36.136Z,99117.47
2022-07-31T22:26:04.530Z,99111.00
2022-07-31T22:28:33.422Z,99120.16
2022-07-31T22:31:00.890Z,99119.09
2022-07-31T22:33:28.449Z,99111.25
2022-07-31T22:36:00.716Z,99116.41
2022-07-31T22:38:31.057Z,99119.91
2022-07-31T22:41:00.249Z,99119.09
2022-07-31T22:44:13.117Z,99118.00
2022-07-31T22:46:17.362Z,99115.31
2022-07-31T22:48:45.780Z,99120.16
2022-07-31T22:51:14.861Z,99121.25
2022-07-31T22:53:48.998Z,99126.66
2022-07-31T22:56:18.063Z,99130.41
2022-07-31T22:58:45.664Z,99125.03
2022-07-31T23:01:13.137Z,99123.41
2022-07-31T23:03:40.194Z,99128.78
2022-07-31T23:06:31.844Z,99122.31
2022-07-31T23:08:55.530Z,99130.13
2022-07-31T23:11:25.683Z,99130.94
2022-07-31T23:13:53.137Z,99129.34
2022-07-31T23:16:20.921Z,99123.13
2022-07-31T23:18:49.917Z,99130.94
2022-07-31T23:21:18.739Z,99125.56
2022-07-31T23:23:48.483Z,99125.03
2022-07-31T23:26:23.860Z,99123.97
2022-07-31T23:28:53.289Z,99123.97
2022-07-31T23:31:21.725Z,99126.91
2022-07-31T23:33:50.051Z,99118.28
2022-07-31T23:36:18.490Z,99126.66
2022-07-31T23:38:46.298Z,99125.84
2022-07-31T23:41:14.496Z,99119.09
2022-07-31T23:43:41.935Z,99119.09
2022-07-31T23:46:26.707Z,99124.19
2022-07-31T23:48:54.970Z,99128.25
2022-07-31T23:51:23.603Z,99125.53
2022-07-31T23:53:51.393Z,99129.06
2022-07-31T23:56:19.615Z,99118.56
2022-07-31T23:58:47.613Z,99125.53
